createdAt,value
2019-05-30T00:02:54.015Z,9.64
2019-05-30T00:08:02.310Z,9.17
2019-05-30T00:13:09.249Z,10.40
2019-05-30T00:18:17.817Z,8.68
2019-05-30T00:23:26.382Z,7.61
2019-05-30T00:28:34.936Z,7.86
2019-05-30T00:33:43.482Z,10.00
2019-05-30T00:38:52.070Z,13.36
2019-05-30T00:44:00.641Z,10.84
2019-05-30T00:49:09.212Z,11.17
2019-05-30T00:54:17.879Z,10.95
2019-05-30T00:59:26.495Z,10.03
2019-05-30T01:04:35.069Z,10.90
2019-05-30T01:09:43.686Z,10.25
2019-05-30T01:14:52.245Z,9.33
2019-05-30T01:20:01.180Z,7.44
2019-05-30T01:25:08.893Z,7.64
2019-05-30T01:30:17.461Z,9.28
2019-05-30T01:35:26.030Z,9.22
2019-05-30T01:40:34.586Z,11.02
2019-05-30T01:45:43.189Z,11.86
2019-05-30T01:50:51.757Z,11.87
2019-05-30T01:56:00.758Z,14.21
2019-05-30T02:01:22.577Z,11.97
2019-05-30T02:06:16.509Z,13.60
2019-05-30T02:11:27.563Z,11.76
2019-05-30T02:16:26.137Z,12.95
2019-05-30T02:21:36.141Z,12.47
2019-05-30T02:26:34.642Z,13.51
2019-05-30T02:31:43.245Z,12.60
2019-05-30T02:36:51.796Z,14.75
2019-05-30T02:42:00.935Z,14.50
2019-05-30T02:47:09.553Z,18.85
2019-05-30T02:52:16.593Z,15.55
2019-05-30T02:57:26.238Z,13.71
2019-05-30T03:02:34.845Z,12.78
2019-05-30T03:07:43.390Z,15.93
2019-05-30T03:12:51.950Z,14.99
2019-05-30T03:18:02.134Z,14.50
2019-05-30T03:23:10.028Z,15.98
2019-05-30T03:28:16.720Z,15.43
2019-05-30T03:33:39.608Z,14.69
2019-05-30T03:38:33.477Z,15.82
2019-05-30T03:43:41.993Z,15.53
2019-05-30T03:48:50.545Z,15.62
2019-05-30T03:53:59.145Z,13.64
2019-05-30T03:59:08.048Z,13.05
2019-05-30T04:04:16.670Z,14.44
2019-05-30T04:09:25.054Z,14.73
2019-05-30T04:14:32.028Z,15.49
2019-05-30T04:19:40.602Z,15.53
2019-05-30T04:24:49.178Z,15.87
2019-05-30T04:29:57.738Z,16.43
2019-05-30T04:35:06.342Z,16.29
2019-05-30T04:40:15.449Z,13.73
2019-05-30T04:45:27.396Z,14.93
2019-05-30T04:50:31.089Z,15.78
2019-05-30T04:55:39.664Z,14.19
2019-05-30T05:00:48.227Z,11.48
2019-05-30T05:05:56.800Z,12.31
2019-05-30T05:11:05.352Z,11.26
2019-05-30T05:16:26.672Z,12.02
2019-05-30T05:21:23.080Z,11.14
2019-05-30T05:26:30.107Z,11.88
2019-05-30T05:31:38.645Z,13.45
2019-05-30T05:36:47.218Z,13.12
2019-05-30T05:41:55.800Z,13.47
2019-05-30T05:47:04.349Z,13.87
2019-05-30T05:52:12.928Z,11.90
2019-05-30T05:57:21.514Z,12.69
2019-05-30T06:02:30.064Z,11.70
2019-05-30T06:07:38.628Z,12.39
2019-05-30T06:12:47.181Z,12.11
2019-05-30T06:17:55.741Z,10.89
2019-05-30T06:23:04.342Z,11.18
2019-05-30T06:28:12.957Z,10.86
2019-05-30T06:33:23.552Z,10.72
2019-05-30T06:38:29.865Z,10.71
2019-05-30T06:43:38.449Z,10.43
2019-05-30T06:48:47.086Z,12.23
2019-05-30T06:53:55.685Z,10.42
2019-05-30T06:59:04.386Z,10.41
2019-05-30T07:04:13.147Z,9.96
2019-05-30T07:09:21.022Z,10.57
2019-05-30T07:14:29.641Z,9.76
2019-05-30T07:19:38.216Z,12.30
2019-05-30T07:24:46.769Z,11.71
2019-05-30T07:29:55.394Z,9.61
2019-05-30T07:35:07.232Z,9.83
2019-05-30T07:40:12.105Z,10.80
2019-05-30T07:45:20.724Z,11.58
2019-05-30T07:50:30.404Z,11.06
2019-05-30T07:55:37.524Z,10.25
2019-05-30T08:00:46.185Z,8.64
2019-05-30T08:05:54.777Z,11.87
2019-05-30T08:11:09.290Z,8.53
2019-05-30T08:16:11.501Z,11.52
2019-05-30T08:21:20.122Z,11.05
2019-05-30T08:26:28.704Z,9.42
2019-05-30T08:31:37.332Z,9.97
2019-05-30T08:36:45.956Z,10.81
2019-05-30T08:41:54.545Z,9.17
2019-05-30T08:47:03.160Z,10.80
2019-05-30T08:52:11.753Z,9.75
2019-05-30T08:57:20.339Z,9.86
2019-05-30T09:02:28.938Z,10.90
2019-05-30T09:07:38.252Z,9.57
2019-05-30T09:12:49.060Z,9.89
2019-05-30T09:17:53.890Z,9.31
2019-05-30T09:23:02.517Z,9.79
2019-05-30T09:28:11.146Z,8.74
2019-05-30T09:33:19.766Z,9.54
2019-05-30T09:38:28.428Z,10.33
2019-05-30T09:43:36.992Z,8.25
2019-05-30T09:48:46.560Z,9.94
2019-05-30T09:53:53.749Z,10.02
2019-05-30T09:59:02.393Z,11.21
2019-05-30T10:04:11.008Z,11.87
2019-05-30T10:09:19.608Z,9.97
2019-05-30T10:14:28.222Z,10.47
2019-05-30T10:19:36.945Z,10.91
2019-05-30T10:24:46.313Z,9.23
2019-05-30T10:29:53.729Z,9.12
2019-05-30T10:35:02.353Z,11.12
2019-05-30T10:40:10.961Z,10.20
2019-05-30T10:45:19.697Z,9.43
2019-05-30T10:50:28.321Z,8.98
2019-05-30T10:55:37.022Z,9.42
2019-05-30T11:00:51.044Z,8.28
2019-05-30T11:05:48.606Z,9.77
2019-05-30T11:10:56.807Z,10.39
2019-05-30T11:16:03.970Z,10.12
2019-05-30T11:21:12.585Z,7.88
2019-05-30T11:26:21.202Z,7.93
2019-05-30T11:31:29.873Z,10.97
2019-05-30T11:36:38.560Z,9.20
2019-05-30T11:41:47.227Z,10.27
2019-05-30T11:46:55.836Z,10.76
2019-05-30T11:52:04.461Z,8.08
2019-05-30T11:57:13.042Z,9.04
2019-05-30T12:02:21.702Z,8.38
2019-05-30T12:07:36.273Z,8.99
2019-05-30T12:12:38.439Z,6.77
2019-05-30T12:17:47.069Z,9.03
2019-05-30T12:22:55.932Z,7.53
2019-05-30T12:28:04.914Z,7.47
2019-05-30T12:33:12.479Z,9.62
2019-05-30T12:38:21.087Z,7.80
2019-05-30T12:43:29.727Z,8.88
2019-05-30T12:48:38.445Z,6.32
2019-05-30T12:53:47.085Z,7.88
2019-05-30T12:58:56.572Z,6.06
2019-05-30T13:04:03.937Z,6.89
2019-05-30T13:09:12.613Z,6.95
2019-05-30T13:14:21.211Z,5.49
2019-05-30T13:19:29.834Z,7.92
2019-05-30T13:24:38.433Z,7.29
2019-05-30T13:29:47.099Z,7.76
2019-05-30T13:34:56.767Z,6.98
2019-05-30T13:40:03.865Z,6.27
2019-05-30T13:45:12.585Z,5.09
2019-05-30T13:50:21.258Z,5.79
2019-05-30T13:55:29.869Z,6.42
2019-05-30T14:00:38.477Z,4.94
2019-05-30T14:05:47.109Z,5.84
2019-05-30T14:10:55.828Z,6.90
2019-05-30T14:16:04.872Z,5.01
2019-05-30T14:21:12.634Z,4.71
2019-05-30T14:26:21.238Z,5.54
2019-05-30T14:31:29.930Z,5.02
2019-05-30T14:36:38.549Z,4.92
2019-05-30T14:41:47.191Z,4.97
2019-05-30T14:46:55.841Z,6.09
2019-05-30T14:52:04.619Z,5.06
2019-05-30T14:57:13.157Z,9.05
2019-05-30T15:02:21.807Z,6.62
2019-05-30T15:07:30.457Z,6.75
2019-05-30T15:12:39.121Z,7.38
2019-05-30T15:17:47.735Z,5.76
2019-05-30T15:22:56.418Z,6.76
2019-05-30T15:28:05.961Z,5.80
2019-05-30T15:33:14.428Z,5.01
2019-05-30T15:38:21.292Z,4.17
2019-05-30T15:43:29.901Z,4.26
2019-05-30T15:48:38.513Z,5.18
2019-05-30T15:53:47.041Z,4.43
2019-05-30T15:58:55.640Z,5.30
2019-05-30T16:04:04.401Z,5.54
2019-05-30T16:09:13.074Z,6.17
2019-05-30T16:14:21.681Z,5.21
2019-05-30T16:19:30.212Z,6.08
2019-05-30T16:24:38.829Z,7.42
2019-05-30T16:29:47.422Z,5.04
2019-05-30T16:34:56.043Z,5.35
2019-05-30T16:40:06.696Z,7.29
2019-05-30T16:45:13.117Z,6.88
2019-05-30T16:50:20.991Z,6.94
2019-05-30T16:55:29.597Z,6.04
2019-05-30T17:00:39.313Z,10.60
2019-05-30T17:05:47.925Z,10.88
2019-05-30T17:10:56.517Z,8.70
2019-05-30T17:16:05.157Z,9.12
2019-05-30T17:21:13.760Z,10.19
2019-05-30T17:26:23.269Z,9.25
2019-05-30T17:31:30.489Z,10.62
2019-05-30T17:36:39.129Z,11.09
2019-05-30T17:41:47.713Z,8.39
2019-05-30T17:46:56.341Z,8.01
2019-05-30T17:52:04.936Z,9.05
2019-05-30T17:57:13.538Z,8.64
2019-05-30T18:02:22.392Z,9.34
2019-05-30T18:07:31.202Z,9.27
2019-05-30T18:12:38.812Z,9.48
2019-05-30T18:17:47.422Z,8.75
2019-05-30T18:22:56.018Z,8.69
2019-05-30T18:28:04.592Z,8.46
2019-05-30T18:33:13.181Z,7.65
2019-05-30T18:38:22.251Z,8.07
2019-05-30T18:43:30.916Z,7.22
2019-05-30T18:48:38.030Z,7.08
2019-05-30T18:53:46.685Z,7.20
2019-05-30T18:58:55.264Z,6.23
2019-05-30T19:04:04.225Z,6.68
2019-05-30T19:09:11.969Z,6.01
2019-05-30T19:14:23.033Z,5.20
2019-05-30T19:19:21.657Z,6.59
2019-05-30T19:24:30.221Z,7.09
2019-05-30T19:29:38.838Z,4.56
2019-05-30T19:34:47.414Z,4.60
2019-05-30T19:39:56.022Z,4.66
2019-05-30T19:45:04.637Z,4.41
2019-05-30T19:50:13.269Z,4.27
2019-05-30T19:55:21.882Z,5.20
2019-05-30T20:00:31.866Z,3.83
2019-05-30T20:05:38.909Z,3.73
2019-05-30T20:10:46.645Z,4.48
2019-05-30T20:15:55.205Z,5.07
2019-05-30T20:21:03.813Z,6.16
2019-05-30T20:26:12.394Z,32.74
2019-05-30T20:31:21.008Z,23.64
2019-05-30T20:36:29.611Z,47.77
2019-05-30T20:41:38.842Z,29.62
2019-05-30T20:46:47.340Z,18.06
2019-05-30T20:51:54.439Z,14.23
2019-05-30T20:57:03.009Z,8.58
2019-05-30T21:02:11.733Z,8.26
2019-05-30T21:07:20.290Z,5.69
2019-05-30T21:12:37.891Z,5.35
2019-05-30T21:17:37.770Z,3.77
2019-05-30T21:22:46.480Z,4.31
2019-05-30T21:27:53.257Z,4.66
2019-05-30T21:33:01.899Z,4.34
2019-05-30T21:38:10.407Z,4.92
2019-05-30T21:43:18.984Z,5.34
2019-05-30T21:48:27.560Z,2.86
2019-05-30T21:53:36.141Z,4.00
2019-05-30T21:58:44.817Z,3.65
2019-05-30T22:03:53.412Z,3.24
2019-05-30T22:09:03.561Z,2.96
2019-05-30T22:14:10.132Z,3.00
2019-05-30T22:19:18.694Z,2.75
2019-05-30T22:24:27.306Z,3.62
2019-05-30T22:29:35.889Z,5.17
2019-05-30T22:34:44.682Z,2.90
2019-05-30T22:39:53.090Z,2.58
2019-05-30T22:45:01.690Z,3.95
2019-05-30T22:50:10.221Z,3.23
2019-05-30T22:55:18.773Z,3.28
2019-05-30T23:00:27.326Z,3.11
2019-05-30T23:05:35.937Z,2.66
2019-05-30T23:10:45.594Z,2.53
2019-05-30T23:15:52.826Z,2.94
2019-05-30T23:21:01.165Z,3.07
2019-05-30T23:26:09.765Z,3.88
2019-05-30T23:31:18.378Z,3.66
2019-05-30T23:36:26.965Z,2.63
2019-05-30T23:41:35.544Z,2.31
2019-05-30T23:46:44.132Z,3.62
2019-05-30T23:51:54.475Z,8.07
2019-05-30T23:57:00.964Z,4.80
